createdAt,value
2019-05-09T00:02:28.117Z,95.50
2019-05-09T00:07:31.086Z,94.70
2019-05-09T00:12:24.750Z,94.50
2019-05-09T00:17:19.232Z,95.20
2019-05-09T00:22:13.732Z,94.50
2019-05-09T00:27:08.486Z,94.70
2019-05-09T00:32:03.945Z,94.50
2019-05-09T00:37:03.547Z,93.90
2019-05-09T00:41:57.106Z,94.10
2019-05-09T00:46:55.715Z,94.50
2019-05-09T00:51:49.261Z,94.60
2019-05-09T00:56:43.645Z,94.10
2019-05-09T01:01:37.384Z,95.00
2019-05-09T01:06:30.980Z,94.20
2019-05-09T01:11:24.625Z,95.30
2019-05-09T01:16:18.481Z,94.70
2019-05-09T01:21:13.529Z,95.00
2019-05-09T01:26:07.199Z,94.90
2019-05-09T01:31:05.826Z,95.10
2019-05-09T01:36:05.104Z,95.30
2019-05-09T01:40:58.758Z,94.90
2019-05-09T01:45:54.080Z,94.80
2019-05-09T01:50:47.917Z,95.00
2019-05-09T01:56:00.639Z,95.60
2019-05-09T02:00:56.272Z,95.60
2019-05-09T02:05:59.385Z,95.70
2019-05-09T02:10:54.245Z,95.10
2019-05-09T02:15:53.873Z,95.40
2019-05-09T02:20:54.303Z,95.80
2019-05-09T02:25:53.231Z,95.50
2019-05-09T02:30:49.527Z,95.30
2019-05-09T02:36:00.795Z,95.30
2019-05-09T02:40:53.139Z,95.60
2019-05-09T02:45:53.858Z,95.40
2019-05-09T02:50:48.497Z,95.60
2019-05-09T02:55:42.630Z,95.10
2019-05-09T03:00:40.532Z,95.50
2019-05-09T03:05:34.189Z,95.30
2019-05-09T03:10:34.020Z,95.30
2019-05-09T03:15:34.807Z,95.40
2019-05-09T03:20:53.964Z,95.60
2019-05-09T03:25:48.452Z,95.40
2019-05-09T03:30:43.762Z,95.30
2019-05-09T03:35:37.895Z,95.50
2019-05-09T03:40:31.470Z,95.50
2019-05-09T03:45:27.323Z,95.40
2019-05-09T03:50:20.940Z,95.40
2019-05-09T03:55:17.874Z,95.90
2019-05-09T04:00:13.848Z,95.80
2019-05-09T04:05:08.533Z,95.30
2019-05-09T04:10:08.320Z,95.60
2019-05-09T04:15:03.201Z,95.30
2019-05-09T04:19:57.819Z,95.40
2019-05-09T04:24:52.393Z,95.30
2019-05-09T04:29:48.477Z,95.70
2019-05-09T04:34:42.792Z,95.50
2019-05-09T04:39:47.238Z,96.00
2019-05-09T04:44:57.600Z,95.40
2019-05-09T04:49:45.516Z,95.70
2019-05-09T04:54:48.486Z,95.80
2019-05-09T04:59:48.045Z,95.60
2019-05-09T05:04:43.553Z,95.70
2019-05-09T05:09:43.036Z,95.40
2019-05-09T05:14:42.485Z,95.60
2019-05-09T05:19:38.200Z,95.00
2019-05-09T05:24:39.285Z,94.80
2019-05-09T05:29:32.869Z,93.80
2019-05-09T05:34:28.361Z,93.50
2019-05-09T05:39:22.048Z,93.10
2019-05-09T05:44:17.639Z,92.30
2019-05-09T05:49:18.746Z,92.50
2019-05-09T05:54:12.327Z,93.30
2019-05-09T05:59:08.388Z,93.30
2019-05-09T06:04:01.286Z,92.80
2019-05-09T06:08:54.763Z,92.40
2019-05-09T06:13:57.307Z,92.30
2019-05-09T06:18:43.988Z,92.50
2019-05-09T06:23:37.819Z,92.70
2019-05-09T06:28:31.365Z,91.40
2019-05-09T06:33:24.927Z,91.90
2019-05-09T06:38:18.873Z,91.70
2019-05-09T06:43:18.308Z,91.00
2019-05-09T06:48:14.967Z,90.90
2019-05-09T06:53:08.537Z,90.90
2019-05-09T06:58:03.736Z,90.30
2019-05-09T07:03:13.977Z,90.40
2019-05-09T07:08:09.419Z,89.30
2019-05-09T07:13:02.977Z,89.90
2019-05-09T07:17:57.490Z,86.70
2019-05-09T07:22:52.847Z,83.00
2019-05-09T07:27:48.298Z,82.20
2019-05-09T07:32:48.517Z,80.70
2019-05-09T07:37:41.556Z,81.40
2019-05-09T07:42:35.293Z,84.70
2019-05-09T07:47:29.089Z,84.10
2019-05-09T07:52:22.645Z,79.70
2019-05-09T07:57:18.195Z,80.30
2019-05-09T08:02:11.685Z,80.20
2019-05-09T08:07:05.306Z,81.90
2019-05-09T08:11:59.132Z,79.50
2019-05-09T08:16:52.621Z,75.90
2019-05-09T08:21:47.983Z,82.70
2019-05-09T08:26:41.363Z,73.70
2019-05-09T08:31:34.850Z,74.60
2019-05-09T08:36:28.751Z,74.60
2019-05-09T08:41:22.298Z,73.50
2019-05-09T08:46:18.129Z,76.80
2019-05-09T08:51:18.048Z,69.80
2019-05-09T08:56:13.141Z,67.20
2019-05-09T09:01:10.178Z,63.20
2019-05-09T09:06:01.689Z,63.80
2019-05-09T09:10:57.668Z,67.10
2019-05-09T09:16:10.517Z,65.00
2019-05-09T09:20:48.316Z,65.60
2019-05-09T09:25:41.168Z,65.80
2019-05-09T09:30:38.084Z,63.70
2019-05-09T09:35:30.212Z,63.60
2019-05-09T09:40:23.774Z,58.30
2019-05-09T09:45:18.317Z,58.70
2019-05-09T09:50:12.635Z,59.10
2019-05-09T09:55:08.783Z,59.80
2019-05-09T10:00:19.353Z,60.30
2019-05-09T10:05:12.896Z,56.80
2019-05-09T10:10:10.662Z,53.20
2019-05-09T10:15:23.820Z,52.70
2019-05-09T10:20:23.056Z,49.40
2019-05-09T10:25:18.371Z,55.80
2019-05-09T10:30:11.982Z,52.20
2019-05-09T10:35:08.614Z,54.40
2019-05-09T10:40:09.975Z,58.00
2019-05-09T10:45:21.958Z,48.80
2019-05-09T10:50:18.336Z,50.10
2019-05-09T10:55:12.574Z,48.60
2019-05-09T11:00:08.950Z,55.20
2019-05-09T11:05:08.370Z,50.10
2019-05-09T11:10:02.046Z,45.50
2019-05-09T11:14:59.143Z,48.50
2019-05-09T11:19:51.476Z,51.00
2019-05-09T11:24:51.128Z,53.80
2019-05-09T11:29:49.867Z,54.10
2019-05-09T11:34:43.789Z,55.40
2019-05-09T11:39:42.031Z,52.40
2019-05-09T11:44:35.474Z,53.90
2019-05-09T11:49:29.629Z,49.90
2019-05-09T11:54:23.449Z,51.60
2019-05-09T11:59:18.901Z,52.90
2019-05-09T12:04:15.524Z,54.30
2019-05-09T12:09:09.474Z,55.10
2019-05-09T12:14:03.034Z,52.40
2019-05-09T12:18:58.352Z,46.50
2019-05-09T12:23:51.888Z,51.90
2019-05-09T12:28:47.821Z,51.40
2019-05-09T12:33:40.647Z,47.60
2019-05-09T12:38:34.131Z,51.20
2019-05-09T12:43:28.280Z,51.30
2019-05-09T12:48:21.934Z,50.30
2019-05-09T12:53:15.807Z,53.30
2019-05-09T12:58:11.025Z,50.50
2019-05-09T13:03:04.579Z,51.70
2019-05-09T13:07:58.160Z,50.50
2019-05-09T13:12:51.638Z,51.80
2019-05-09T13:17:47.991Z,51.20
2019-05-09T13:22:42.037Z,53.30
2019-05-09T13:27:37.677Z,54.50
2019-05-09T13:32:30.736Z,48.80
2019-05-09T13:37:29.367Z,44.50
2019-05-09T13:42:20.479Z,48.30
2019-05-09T13:47:13.997Z,48.40
2019-05-09T13:52:10.182Z,52.70
2019-05-09T13:57:03.122Z,52.40
2019-05-09T14:01:58.078Z,51.00
2019-05-09T14:06:51.728Z,48.20
2019-05-09T14:11:47.786Z,49.10
2019-05-09T14:16:40.430Z,44.80
2019-05-09T14:21:33.991Z,43.20
2019-05-09T14:26:27.825Z,43.60
2019-05-09T14:31:21.392Z,46.80
2019-05-09T14:36:15.109Z,44.90
2019-05-09T14:41:08.646Z,45.30
2019-05-09T14:46:02.248Z,42.70
2019-05-09T14:50:58.151Z,46.20
2019-05-09T14:55:50.924Z,47.00
2019-05-09T15:00:47.809Z,48.70
2019-05-09T15:05:40.608Z,49.00
2019-05-09T15:10:34.423Z,50.00
2019-05-09T15:15:32.019Z,49.30
2019-05-09T15:20:23.363Z,50.10
2019-05-09T15:25:19.228Z,52.10
2019-05-09T15:30:12.190Z,54.10
2019-05-09T15:35:08.704Z,55.00
2019-05-09T15:40:01.449Z,53.40
2019-05-09T15:44:55.211Z,54.00
2019-05-09T15:49:49.675Z,53.30
2019-05-09T15:54:43.485Z,54.00
2019-05-09T15:59:38.958Z,52.10
2019-05-09T16:04:32.724Z,51.50
2019-05-09T16:09:28.387Z,53.10
2019-05-09T16:14:21.744Z,51.40
2019-05-09T16:19:15.561Z,52.00
2019-05-09T16:24:09.101Z,49.40
2019-05-09T16:29:02.665Z,49.70
2019-05-09T16:33:58.098Z,50.00
2019-05-09T16:38:52.010Z,50.80
2019-05-09T16:43:47.776Z,49.80
2019-05-09T16:48:41.245Z,52.40
2019-05-09T16:53:35.055Z,53.10
2019-05-09T16:58:28.623Z,53.80
2019-05-09T17:03:22.181Z,56.20
2019-05-09T17:08:17.739Z,58.00
2019-05-09T17:13:11.645Z,59.90
2019-05-09T17:18:07.368Z,61.30
2019-05-09T17:23:14.972Z,62.70
2019-05-09T17:28:07.910Z,65.50
2019-05-09T17:33:02.053Z,67.60
2019-05-09T17:37:55.614Z,67.40
2019-05-09T17:42:49.156Z,68.20
2019-05-09T17:47:42.624Z,68.50
2019-05-09T17:52:36.115Z,68.20
2019-05-09T17:57:29.683Z,68.20
2019-05-09T18:02:23.425Z,68.50
2019-05-09T18:07:18.024Z,68.70
2019-05-09T18:12:12.077Z,71.10
2019-05-09T18:17:05.722Z,74.10
2019-05-09T18:21:59.282Z,77.10
2019-05-09T18:26:58.031Z,76.90
2019-05-09T18:31:53.045Z,77.90
2019-05-09T18:36:48.396Z,77.10
2019-05-09T18:41:41.904Z,79.60
2019-05-09T18:46:35.492Z,79.30
2019-05-09T18:51:29.050Z,80.50
2019-05-09T18:56:22.537Z,81.20
2019-05-09T19:01:16.053Z,81.20
2019-05-09T19:06:09.596Z,81.20
2019-05-09T19:11:03.261Z,80.20
2019-05-09T19:15:58.807Z,79.10
2019-05-09T19:21:12.853Z,80.00
2019-05-09T19:26:06.405Z,81.70
2019-05-09T19:30:59.940Z,81.70
2019-05-09T19:35:53.430Z,81.50
2019-05-09T19:40:46.973Z,81.20
2019-05-09T19:45:40.532Z,82.30
2019-05-09T19:50:34.017Z,83.60
2019-05-09T19:55:27.669Z,82.00
2019-05-09T20:00:21.508Z,84.10
2019-05-09T20:05:15.239Z,83.40
2019-05-09T20:10:10.535Z,82.10
2019-05-09T20:15:06.471Z,84.90
2019-05-09T20:19:59.943Z,85.40
2019-05-09T20:24:53.728Z,84.20
2019-05-09T20:29:47.495Z,85.90
2019-05-09T20:34:40.996Z,82.20
2019-05-09T20:39:35.009Z,86.70
2019-05-09T20:44:29.017Z,86.20
2019-05-09T20:49:22.993Z,85.00
2019-05-09T20:54:21.186Z,86.80
2019-05-09T20:59:12.045Z,86.10
2019-05-09T21:04:05.803Z,85.30
2019-05-09T21:08:59.531Z,82.10
2019-05-09T21:13:53.193Z,84.70
2019-05-09T21:18:50.145Z,86.20
2019-05-09T21:23:43.812Z,86.80
2019-05-09T21:28:37.476Z,87.40
2019-05-09T21:33:31.309Z,88.10
2019-05-09T21:38:25.122Z,88.50
2019-05-09T21:43:18.681Z,88.30
2019-05-09T21:48:12.156Z,87.50
2019-05-09T21:53:05.920Z,88.10
2019-05-09T21:57:59.498Z,89.40
2019-05-09T22:02:53.248Z,85.80
2019-05-09T22:07:46.795Z,87.00
2019-05-09T22:12:40.271Z,86.60
2019-05-09T22:17:40.373Z,87.70
2019-05-09T22:22:33.851Z,86.50
2019-05-09T22:27:27.332Z,86.30
2019-05-09T22:32:22.268Z,86.20
2019-05-09T22:37:16.119Z,84.90
2019-05-09T22:42:09.680Z,85.90
2019-05-09T22:47:03.237Z,86.70
2019-05-09T22:51:56.783Z,88.70
2019-05-09T22:56:50.310Z,86.30
2019-05-09T23:01:43.917Z,85.90
2019-05-09T23:06:37.465Z,86.70
2019-05-09T23:11:31.015Z,87.80
2019-05-09T23:16:27.080Z,86.60
2019-05-09T23:21:21.011Z,86.80
2019-05-09T23:26:16.485Z,85.70
2019-05-09T23:31:12.109Z,86.40
2019-05-09T23:36:05.668Z,88.50
2019-05-09T23:41:04.956Z,88.10
2019-05-09T23:45:58.445Z,85.60
2019-05-09T23:50:52.382Z,87.30
2019-05-09T23:56:04.061Z,89.50
